Time;durP1;ratioP1;P1;durP2;ratioP2;P2;SDS_P1;SDS_P2;PMS_P1;PMS_P2;Temp;Humidity;BMP_temperature;BMP_pressure;BME280_temperature;BME280_humidity;BME280_pressure;Samples;Min_cycle;Max_cycle;Signal;HPM_P1;HPM_P2
2023/03/18 00:02:14;;;;;;;5.03;3.45;;;;;;;;;;4978284;28;20049;-61
2023/03/18 00:04:39;;;;;;;4.68;3.15;;;;;;;;;;4976470;28;20813;-61
2023/03/18 00:07:05;;;;;;;5.32;3.33;;;;;;;;;;4976467;28;20176;-61
2023/03/18 00:09:30;;;;;;;6.13;3.50;;;;;;;;;;4976803;28;20886;-61
2023/03/18 00:11:55;;;;;;;5.13;3.47;;;;;;;;;;4974014;28;20118;-60
2023/03/18 00:14:21;;;;;;;5.43;3.25;;;;;;;;;;4975101;28;20408;-60
2023/03/18 00:16:47;;;;;;;4.63;3.17;;;;;;;;;;4955773;28;21556;-60
2023/03/18 00:19:12;;;;;;;4.97;3.28;;;;;;;;;;4974172;28;21267;-61
2023/03/18 00:21:37;;;;;;;4.65;3.30;;;;;;;;;;4975499;28;20456;-61
2023/03/18 00:24:03;;;;;;;4.33;3.07;;;;;;;;;;4976907;28;20040;-60
2023/03/18 00:26:28;;;;;;;5.05;3.08;;;;;;;;;;4974836;28;20407;-61
2023/03/18 00:28:54;;;;;;;4.65;3.20;;;;;;;;;;4973979;28;20045;-60
2023/03/18 00:31:19;;;;;;;5.20;3.20;;;;;;;;;;4956037;28;20574;-60
2023/03/18 00:33:44;;;;;;;5.67;3.37;;;;;;;;;;4973460;28;21916;-60
2023/03/18 00:36:12;;;;;;;5.32;3.45;;;;;;;;;;4971083;28;21714;-61
2023/03/18 00:38:38;;;;;;;4.43;3.40;;;;;;;;;;4973445;28;20041;-60
2023/03/18 00:41:10;;;;;;;5.97;3.35;;;;;;;;;;4975984;28;20543;-60
2023/03/18 00:43:44;;;;;;;5.07;3.30;;;;;;;;;;4958885;28;20041;-60
2023/03/18 00:46:10;;;;;;;5.28;3.50;;;;;;;;;;4979848;28;20060;-60
2023/03/18 00:48:36;;;;;;;5.70;3.40;;;;;;;;;;4974241;28;20139;-60
2023/03/18 00:51:01;;;;;;;5.05;3.40;;;;;;;;;;4981318;28;22865;-60
2023/03/18 00:53:26;;;;;;;5.27;3.73;;;;;;;;;;4980861;28;22378;-59
2023/03/18 00:55:51;;;;;;;4.78;3.22;;;;;;;;;;4961351;28;20302;-61
2023/03/18 00:58:17;;;;;;;4.72;3.58;;;;;;;;;;4978869;28;20085;-60
2023/03/18 01:00:43;;;;;;;5.03;3.30;;;;;;;;;;4979639;28;21108;-60
2023/03/18 01:03:08;;;;;;;6.47;3.67;;;;;;;;;;4981112;28;20041;-61
2023/03/18 01:05:34;;;;;;;4.70;3.50;;;;;;;;;;4982257;28;20344;-61
2023/03/18 01:08:00;;;;;;;4.95;3.75;;;;;;;;;;4980910;28;20052;-60
2023/03/18 01:10:26;;;;;;;5.13;3.38;;;;;;;;;;4980231;28;20032;-60
2023/03/18 01:12:52;;;;;;;4.63;3.53;;;;;;;;;;4983788;28;20126;-59
2023/03/18 01:15:18;;;;;;;5.35;3.30;;;;;;;;;;4982947;28;20151;-60
2023/03/18 01:17:44;;;;;;;5.32;3.65;;;;;;;;;;4980933;28;20936;-61
2023/03/18 01:20:11;;;;;;;4.40;3.20;;;;;;;;;;4967499;28;20135;-61
2023/03/18 01:22:38;;;;;;;4.90;3.58;;;;;;;;;;4979857;28;20045;-61
2023/03/18 01:25:03;;;;;;;5.00;3.55;;;;;;;;;;4981924;28;20052;-60
2023/03/18 01:27:28;;;;;;;5.05;3.53;;;;;;;;;;4983390;28;20045;-61
2023/03/18 01:29:54;;;;;;;6.57;3.50;;;;;;;;;;4963402;28;20097;-60
2023/03/18 01:32:19;;;;;;;4.97;3.87;;;;;;;;;;4982116;28;20075;-61
2023/03/18 01:34:45;;;;;;;5.13;3.60;;;;;;;;;;4980653;28;20283;-59
2023/03/18 01:37:10;;;;;;;5.10;3.40;;;;;;;;;;4963032;28;20812;-60
2023/03/18 01:39:36;;;;;;;5.13;3.60;;;;;;;;;;4979412;28;20168;-61
2023/03/18 01:42:02;;;;;;;5.50;3.93;;;;;;;;;;4977524;28;20162;-58
2023/03/18 01:44:27;;;;;;;6.30;4.00;;;;;;;;;;4980761;28;20295;-60
2023/03/18 01:46:53;;;;;;;5.40;3.60;;;;;;;;;;4978861;28;20067;-61
2023/03/18 01:49:27;;;;;;;5.22;3.90;;;;;;;;;;4980738;28;20045;-59
2023/03/18 01:52:02;;;;;;;5.20;3.67;;;;;;;;;;4964033;28;20569;-60
2023/03/18 01:54:28;;;;;;;5.35;3.97;;;;;;;;;;4979062;28;20511;-60
2023/03/18 01:56:53;;;;;;;5.80;3.45;;;;;;;;;;4978880;28;20124;-60
2023/03/18 01:59:20;;;;;;;6.10;3.90;;;;;;;;;;4981724;28;21290;-60
2023/03/18 02:01:53;;;;;;;4.95;3.75;;;;;;;;;;4951247;28;20049;-60
2023/03/18 02:04:18;;;;;;;4.75;3.80;;;;;;;;;;4986773;28;20033;-59
2023/03/18 02:06:43;;;;;;;4.75;3.65;;;;;;;;;;4987882;28;20138;-60
2023/03/18 02:09:09;;;;;;;4.60;3.58;;;;;;;;;;4986455;28;20033;-60
2023/03/18 02:11:37;;;;;;;4.80;3.78;;;;;;;;;;4967028;28;20060;-60
2023/03/18 02:14:03;;;;;;;5.18;3.67;;;;;;;;;;4981676;28;20044;-60
2023/03/18 02:16:33;;;;;;;4.57;3.58;;;;;;;;;;4980327;28;20127;-59
2023/03/18 02:18:58;;;;;;;;;;;;;;;;;;4979261;28;20794;-59
2023/03/18 02:21:39;;;;;;;6.03;4.00;;;;;;;;;;4980301;28;20740;-60
2023/03/18 02:24:14;;;;;;;5.68;3.75;;;;;;;;;;4981147;28;20059;-61
2023/03/18 02:27:00;;;;;;;5.80;4.00;;;;;;;;;;4980824;28;20908;-60
2023/03/18 02:29:25;;;;;;;5.72;4.00;;;;;;;;;;4979743;28;20545;-60
2023/03/18 02:31:50;;;;;;;5.10;3.90;;;;;;;;;;4961446;28;20970;-61
2023/03/18 02:34:16;;;;;;;4.20;3.42;;;;;;;;;;4961998;28;20449;-60
2023/03/18 02:36:41;;;;;;;6.43;4.40;;;;;;;;;;4979542;28;20878;-60
2023/03/18 02:39:07;;;;;;;5.70;4.00;;;;;;;;;;4982460;28;20190;-58
2023/03/18 02:41:33;;;;;;;5.07;4.07;;;;;;;;;;4981933;28;20052;-61
2023/03/18 02:43:59;;;;;;;5.55;3.85;;;;;;;;;;4960885;28;21756;-60
2023/03/18 02:46:43;;;;;;;5.03;4.00;;;;;;;;;;4979255;28;20040;-62
2023/03/18 02:49:08;;;;;;;5.38;4.18;;;;;;;;;;4980746;28;20858;-60
2023/03/18 02:51:34;;;;;;;6.45;4.30;;;;;;;;;;4980793;28;20344;-59
2023/03/18 02:54:01;;;;;;;5.60;3.92;;;;;;;;;;4980416;28;20044;-59
2023/03/18 02:56:26;;;;;;;5.47;3.90;;;;;;;;;;4980970;28;20036;-60
2023/03/18 02:58:52;;;;;;;5.90;3.90;;;;;;;;;;4980998;28;20143;-59
2023/03/18 03:01:18;;;;;;;5.90;4.43;;;;;;;;;;4978880;28;21083;-59
2023/03/18 03:03:43;;;;;;;5.65;4.28;;;;;;;;;;4977258;28;20040;-60
2023/03/18 03:06:09;;;;;;;6.00;4.10;;;;;;;;;;4976066;28;20041;-60
2023/03/18 03:08:36;;;;;;;6.13;4.10;;;;;;;;;;4978083;28;21269;-60
2023/03/18 03:11:01;;;;;;;6.25;4.47;;;;;;;;;;4977768;28;20562;-60
2023/03/18 03:13:26;;;;;;;5.68;4.18;;;;;;;;;;4976140;28;20130;-60
2023/03/18 03:15:52;;;;;;;5.78;4.20;;;;;;;;;;4977085;28;20521;-60
2023/03/18 03:18:18;;;;;;;5.95;4.15;;;;;;;;;;4975479;28;20881;-61
2023/03/18 03:20:43;;;;;;;6.38;4.25;;;;;;;;;;4978021;28;21285;-60
2023/03/18 03:23:09;;;;;;;6.25;4.55;;;;;;;;;;4977025;28;20044;-59
2023/03/18 03:25:35;;;;;;;6.50;4.60;;;;;;;;;;4948303;28;20123;-61
2023/03/18 03:28:01;;;;;;;6.30;4.15;;;;;;;;;;4943861;28;20127;-61
2023/03/18 03:30:27;;;;;;;5.32;4.28;;;;;;;;;;4963543;28;20808;-60
2023/03/18 03:32:52;;;;;;;6.53;4.57;;;;;;;;;;4974092;28;20334;-60
2023/03/18 03:35:17;;;;;;;6.40;4.37;;;;;;;;;;4973115;28;20079;-60
2023/03/18 03:37:42;;;;;;;6.18;3.97;;;;;;;;;;4977551;28;20314;-59
2023/03/18 03:40:12;;;;;;;6.20;4.40;;;;;;;;;;4959466;28;20037;-61
2023/03/18 03:42:37;;;;;;;5.85;4.30;;;;;;;;;;4973505;28;20596;-58
2023/03/18 03:45:04;;;;;;;6.13;4.60;;;;;;;;;;4977626;28;20047;-59
2023/03/18 03:47:29;;;;;;;5.97;4.38;;;;;;;;;;4979226;28;20037;-58
2023/03/18 03:49:55;;;;;;;5.72;4.53;;;;;;;;;;4963179;28;20159;-58
2023/03/18 03:52:20;;;;;;;6.10;4.53;;;;;;;;;;4983904;28;20140;-62
2023/03/18 03:54:46;;;;;;;6.73;5.03;;;;;;;;;;5024127;28;20037;-62
2023/03/18 03:57:11;;;;;;;6.30;4.85;;;;;;;;;;5016026;28;20339;-61
2023/03/18 03:59:36;;;;;;;6.88;4.90;;;;;;;;;;5015505;28;20505;-60
2023/03/18 04:02:02;;;;;;;6.47;4.70;;;;;;;;;;5019625;28;20345;-61
2023/03/18 04:04:27;;;;;;;6.47;4.38;;;;;;;;;;5021350;28;20045;-60
2023/03/18 04:06:52;;;;;;;6.18;4.55;;;;;;;;;;5019823;28;20512;-61
2023/03/18 04:09:18;;;;;;;6.97;4.53;;;;;;;;;;5004977;28;20041;-61
2023/03/18 04:11:43;;;;;;;6.50;4.82;;;;;;;;;;5018717;28;20788;-60
2023/03/18 04:14:09;;;;;;;6.57;4.65;;;;;;;;;;5001580;28;20045;-61
2023/03/18 04:16:34;;;;;;;5.97;4.35;;;;;;;;;;5017941;28;20037;-61
2023/03/18 04:18:59;;;;;;;6.35;4.40;;;;;;;;;;5024934;28;20561;-62
2023/03/18 04:21:24;;;;;;;7.28;5.30;;;;;;;;;;5024695;28;20048;-61
2023/03/18 04:23:50;;;;;;;6.53;5.00;;;;;;;;;;5026364;28;20492;-62
2023/03/18 04:26:16;;;;;;;5.75;4.55;;;;;;;;;;5005892;28;20449;-62
2023/03/18 04:28:41;;;;;;;6.97;4.80;;;;;;;;;;5026712;28;20113;-59
2023/03/18 04:31:06;;;;;;;5.93;4.75;;;;;;;;;;5017500;28;20077;-61
2023/03/18 04:33:32;;;;;;;6.40;5.03;;;;;;;;;;5000922;28;20091;-60
2023/03/18 04:35:57;;;;;;;6.63;5.13;;;;;;;;;;5018306;28;20049;-61
2023/03/18 04:38:23;;;;;;;6.53;5.07;;;;;;;;;;5002811;28;20034;-60
2023/03/18 04:40:48;;;;;;;7.50;5.32;;;;;;;;;;5019561;28;20484;-61
2023/03/18 04:43:14;;;;;;;7.25;4.95;;;;;;;;;;5021311;28;20065;-61
2023/03/18 04:45:39;;;;;;;6.45;4.95;;;;;;;;;;5023341;28;20067;-61
2023/03/18 04:48:04;;;;;;;6.25;5.15;;;;;;;;;;5030336;28;20067;-61
2023/03/18 04:50:30;;;;;;;7.32;5.13;;;;;;;;;;4999873;28;20141;-61
2023/03/18 04:52:55;;;;;;;7.05;5.25;;;;;;;;;;5028053;28;20128;-60
2023/03/18 04:55:20;;;;;;;7.07;4.78;;;;;;;;;;5016524;28;20040;-61
2023/03/18 04:57:47;;;;;;;7.38;5.30;;;;;;;;;;5030667;28;20056;-61
2023/03/18 05:00:13;;;;;;;7.90;5.18;;;;;;;;;;5032516;28;20045;-62
2023/03/18 05:02:38;;;;;;;7.30;5.30;;;;;;;;;;5033913;28;20569;-60
2023/03/18 05:05:04;;;;;;;6.80;4.97;;;;;;;;;;5013389;28;20041;-61
2023/03/18 05:07:30;;;;;;;7.00;5.20;;;;;;;;;;5027582;28;20140;-62
2023/03/18 05:09:55;;;;;;;7.15;5.05;;;;;;;;;;5027642;28;20076;-61
2023/03/18 05:12:21;;;;;;;6.80;5.00;;;;;;;;;;5028434;28;20525;-61
2023/03/18 05:14:46;;;;;;;6.90;5.28;;;;;;;;;;5027546;28;20422;-59
2023/03/18 05:17:14;;;;;;;7.28;4.90;;;;;;;;;;5007752;28;20022;-63
2023/03/18 05:19:43;;;;;;;8.18;5.55;;;;;;;;;;5021214;28;20034;-61
2023/03/18 05:22:09;;;;;;;6.90;5.20;;;;;;;;;;5027711;28;20451;-60
2023/03/18 05:24:34;;;;;;;8.55;5.60;;;;;;;;;;5011325;28;20044;-62
2023/03/18 05:27:00;;;;;;;7.57;5.20;;;;;;;;;;5027175;28;20033;-62
2023/03/18 05:29:26;;;;;;;8.52;5.78;;;;;;;;;;5029824;28;20037;-62
2023/03/18 05:31:51;;;;;;;7.47;5.13;;;;;;;;;;5026446;28;20141;-61
2023/03/18 05:34:16;;;;;;;6.50;5.47;;;;;;;;;;5030537;28;20120;-61
2023/03/18 05:36:42;;;;;;;7.30;5.27;;;;;;;;;;5034721;28;20128;-61
2023/03/18 05:39:07;;;;;;;6.60;4.90;;;;;;;;;;5024723;28;20069;-61
2023/03/18 05:41:32;;;;;;;7.28;5.60;;;;;;;;;;5025852;28;20067;-62
2023/03/18 05:43:58;;;;;;;6.60;5.43;;;;;;;;;;5026479;28;20525;-61
2023/03/18 05:46:23;;;;;;;7.47;5.18;;;;;;;;;;5018102;28;20591;-59
2023/03/18 05:48:49;;;;;;;7.00;5.43;;;;;;;;;;5007776;28;20123;-61
2023/03/18 05:51:14;;;;;;;6.95;4.82;;;;;;;;;;5001510;28;20292;-59
2023/03/18 05:53:39;;;;;;;7.18;5.10;;;;;;;;;;5001066;28;20517;-59
2023/03/18 05:56:05;;;;;;;6.45;5.13;;;;;;;;;;4984461;28;20056;-59
2023/03/18 05:58:30;;;;;;;8.35;5.60;;;;;;;;;;5005242;28;20140;-60
2023/03/18 06:00:56;;;;;;;7.53;4.83;;;;;;;;;;5007740;28;20063;-60
2023/03/18 06:03:23;;;;;;;7.85;5.57;;;;;;;;;;5006370;28;20764;-63
2023/03/18 06:05:48;;;;;;;7.32;5.50;;;;;;;;;;5005303;28;20057;-61
2023/03/18 06:08:14;;;;;;;7.03;5.28;;;;;;;;;;5004646;28;20602;-59
2023/03/18 06:10:40;;;;;;;7.07;4.88;;;;;;;;;;5005077;28;20037;-61
2023/03/18 06:13:06;;;;;;;6.68;5.13;;;;;;;;;;5005032;28;20050;-61
2023/03/18 06:15:32;;;;;;;7.32;5.30;;;;;;;;;;4988182;28;20410;-61
2023/03/18 06:17:57;;;;;;;6.82;4.93;;;;;;;;;;5005138;28;20403;-62
2023/03/18 06:20:23;;;;;;;6.90;5.55;;;;;;;;;;4986070;28;20152;-62
2023/03/18 06:22:48;;;;;;;7.20;5.45;;;;;;;;;;5003413;28;20101;-61
2023/03/18 06:25:15;;;;;;;6.30;5.03;;;;;;;;;;5007306;28;20075;-62
2023/03/18 06:27:40;;;;;;;6.47;5.53;;;;;;;;;;4988882;28;20037;-60
2023/03/18 06:30:06;;;;;;;6.03;4.93;;;;;;;;;;5006290;28;20030;-60
2023/03/18 06:32:32;;;;;;;7.60;5.78;;;;;;;;;;5001638;28;20053;-61
2023/03/18 06:34:58;;;;;;;6.35;5.03;;;;;;;;;;4994104;28;20050;-61
2023/03/18 06:37:24;;;;;;;6.47;5.10;;;;;;;;;;4998134;28;20356;-61
2023/03/18 06:39:49;;;;;;;7.68;5.30;;;;;;;;;;5001480;28;20433;-60
2023/03/18 06:42:14;;;;;;;7.80;5.33;;;;;;;;;;5000219;28;20552;-62
2023/03/18 06:44:43;;;;;;;5.85;4.75;;;;;;;;;;5000184;28;21042;-62
2023/03/18 06:47:08;;;;;;;6.28;4.75;;;;;;;;;;5001345;28;20044;-61
2023/03/18 06:49:34;;;;;;;6.38;5.10;;;;;;;;;;5001571;28;20058;-61
2023/03/18 06:51:59;;;;;;;6.90;5.32;;;;;;;;;;5000633;28;20052;-61
2023/03/18 06:54:25;;;;;;;6.20;4.80;;;;;;;;;;5000595;28;22218;-60
2023/03/18 06:56:50;;;;;;;6.00;5.20;;;;;;;;;;5000165;28;20021;-61
2023/03/18 07:01:43;;;;;;;7.10;5.35;;;;;;;;;;4979070;28;20460;-67
2023/03/18 07:04:09;;;;;;;7.88;5.28;;;;;;;;;;4977997;28;20026;-61
2023/03/18 07:06:35;;;;;;;7.38;5.20;;;;;;;;;;4984112;28;20026;-66
2023/03/18 07:09:00;;;;;;;7.20;5.22;;;;;;;;;;4983749;28;20509;-67
2023/03/18 07:11:25;;;;;;;6.82;5.45;;;;;;;;;;4984822;28;20243;-73
2023/03/18 07:13:52;;;;;;;6.72;5.22;;;;;;;;;;4986016;28;20022;-61
2023/03/18 07:16:17;;;;;;;6.80;5.13;;;;;;;;;;4985921;28;20025;-66
2023/03/18 07:18:42;;;;;;;9.50;5.75;;;;;;;;;;4987503;28;20237;-64
2023/03/18 07:21:08;;;;;;;6.65;5.22;;;;;;;;;;4992404;28;20348;-63
2023/03/18 07:23:33;;;;;;;6.53;5.32;;;;;;;;;;4971550;28;20022;-64
2023/03/18 07:25:59;;;;;;;7.88;5.55;;;;;;;;;;5059076;22;20682;-62
2023/03/18 07:28:24;;;;;;;6.35;5.47;;;;;;;;;;5029943;28;20088;-64
2023/03/18 07:30:50;;;;;;;7.20;5.68;;;;;;;;;;5021152;28;20036;-72
2023/03/18 07:33:15;;;;;;;7.13;5.35;;;;;;;;;;5024316;28;20250;-66
2023/03/18 07:35:40;;;;;;;7.53;5.28;;;;;;;;;;5024922;28;20453;-65
2023/03/18 07:38:06;;;;;;;8.75;5.90;;;;;;;;;;5027596;28;20027;-66
2023/03/18 07:40:32;;;;;;;7.35;5.28;;;;;;;;;;5007815;28;20052;-66
2023/03/18 07:42:57;;;;;;;7.63;5.13;;;;;;;;;;5031134;28;20025;-67
2023/03/18 07:45:22;;;;;;;7.53;5.87;;;;;;;;;;5009912;28;20268;-66
2023/03/18 07:47:48;;;;;;;8.07;5.40;;;;;;;;;;5033134;28;20901;-67
2023/03/18 07:50:13;;;;;;;9.98;5.80;;;;;;;;;;5032331;28;20040;-64
2023/03/18 07:52:38;;;;;;;8.13;5.60;;;;;;;;;;5030668;28;20033;-61
2023/03/18 07:55:04;;;;;;;10.15;6.07;;;;;;;;;;5045735;28;20606;-67
2023/03/18 07:57:30;;;;;;;7.90;5.78;;;;;;;;;;5012101;28;20211;-68
2023/03/18 07:59:55;;;;;;;7.35;5.82;;;;;;;;;;5012181;28;20013;-67
2023/03/18 08:02:20;;;;;;;7.00;5.25;;;;;;;;;;5032971;28;20685;-71
2023/03/18 08:04:46;;;;;;;6.13;5.17;;;;;;;;;;5021725;28;20459;-67
2023/03/18 08:07:11;;;;;;;8.57;5.65;;;;;;;;;;5039812;28;20842;-65
2023/03/18 08:09:37;;;;;;;7.60;5.45;;;;;;;;;;5026897;28;20071;-69
2023/03/18 08:12:02;;;;;;;7.70;5.68;;;;;;;;;;5045684;28;20028;-69
2023/03/18 08:14:27;;;;;;;7.43;5.57;;;;;;;;;;5031588;28;20830;-67
2023/03/18 08:16:53;;;;;;;15.93;10.40;;;;;;;;;;5034012;28;20021;-65
2023/03/18 08:19:18;;;;;;;14.43;8.05;;;;;;;;;;5001425;28;20275;-66
2023/03/18 08:21:43;;;;;;;6.60;5.80;;;;;;;;;;5020355;28;20041;-67
2023/03/18 08:24:09;;;;;;;9.38;6.00;;;;;;;;;;5030797;28;20057;-65
2023/03/18 08:26:35;;;;;;;8.48;5.90;;;;;;;;;;5037360;28;20029;-66
2023/03/18 08:29:00;;;;;;;8.18;6.00;;;;;;;;;;5037470;28;20060;-67
2023/03/18 08:31:25;;;;;;;7.53;5.83;;;;;;;;;;5038095;28;20509;-68
2023/03/18 08:33:53;;;;;;;8.40;6.30;;;;;;;;;;5013786;28;20279;-67
2023/03/18 08:36:18;;;;;;;7.68;5.88;;;;;;;;;;5019331;28;20067;-67
2023/03/18 08:38:44;;;;;;;7.93;5.68;;;;;;;;;;5040842;28;20037;-67
2023/03/18 08:41:09;;;;;;;8.77;5.80;;;;;;;;;;5041796;28;20119;-67
2023/03/18 08:43:34;;;;;;;7.47;5.57;;;;;;;;;;5052760;28;20074;-66
2023/03/18 08:45:59;;;;;;;7.30;5.60;;;;;;;;;;5018733;28;20085;-67
2023/03/18 08:48:25;;;;;;;14.67;10.87;;;;;;;;;;5042235;28;20271;-67
2023/03/18 08:50:50;;;;;;;10.03;7.70;;;;;;;;;;5018376;28;20668;-67
2023/03/18 08:53:15;;;;;;;8.80;6.43;;;;;;;;;;5019143;28;20303;-66
2023/03/18 08:55:41;;;;;;;8.63;6.35;;;;;;;;;;4998187;28;20119;-65
2023/03/18 08:58:06;;;;;;;8.30;6.07;;;;;;;;;;5020685;28;20044;-66
2023/03/18 09:00:32;;;;;;;6.47;5.45;;;;;;;;;;5034807;28;20848;-67
2023/03/18 09:02:58;;;;;;;8.73;5.97;;;;;;;;;;5040054;28;20037;-65
2023/03/18 09:05:23;;;;;;;7.13;5.30;;;;;;;;;;5053709;28;20052;-67
2023/03/18 09:07:49;;;;;;;8.65;6.03;;;;;;;;;;5041667;28;20286;-66
2023/03/18 09:10:16;;;;;;;9.32;6.38;;;;;;;;;;5047449;28;20051;-67
2023/03/18 09:12:42;;;;;;;7.28;5.75;;;;;;;;;;5030434;28;20048;-66
2023/03/18 09:15:09;;;;;;;8.63;6.10;;;;;;;;;;5033379;28;20104;-67
2023/03/18 09:17:34;;;;;;;7.15;5.50;;;;;;;;;;5043499;28;20426;-66
2023/03/18 09:20:00;;;;;;;7.35;5.70;;;;;;;;;;5057521;28;20498;-67
2023/03/18 09:22:25;;;;;;;8.05;5.97;;;;;;;;;;5052119;28;20029;-67
2023/03/18 09:24:51;;;;;;;7.32;5.72;;;;;;;;;;5025713;28;20039;-67
2023/03/18 09:27:16;;;;;;;7.40;5.95;;;;;;;;;;5048532;28;20072;-62
2023/03/18 09:29:41;;;;;;;8.43;6.50;;;;;;;;;;5002448;28;20061;-64
2023/03/18 09:32:07;;;;;;;8.27;5.88;;;;;;;;;;4986932;28;20320;-64
2023/03/18 09:34:32;;;;;;;10.55;6.43;;;;;;;;;;5015780;28;20506;-65
2023/03/18 09:36:58;;;;;;;8.47;5.97;;;;;;;;;;5005824;28;20033;-64
2023/03/18 09:39:23;;;;;;;8.18;6.25;;;;;;;;;;5002027;28;20672;-64
2023/03/18 09:41:56;;;;;;;7.75;5.72;;;;;;;;;;5014159;28;20033;-62
2023/03/18 09:44:22;;;;;;;6.97;5.57;;;;;;;;;;5014906;28;20103;-64
2023/03/18 09:46:53;;;;;;;10.35;5.57;;;;;;;;;;5043715;28;20044;-63
2023/03/18 09:49:22;;;;;;;7.82;5.55;;;;;;;;;;5044561;28;20822;-65
2023/03/18 09:51:50;;;;;;;7.70;6.00;;;;;;;;;;5035338;28;20486;-64
2023/03/18 09:54:19;;;;;;;7.80;5.55;;;;;;;;;;5032346;28;20061;-62
2023/03/18 09:56:44;;;;;;;8.18;5.72;;;;;;;;;;5000493;28;20045;-69
2023/03/18 09:59:20;;;;;;;6.72;5.15;;;;;;;;;;5028409;28;20520;-65
2023/03/18 10:01:45;;;;;;;8.82;5.55;;;;;;;;;;5029097;28;20459;-65
2023/03/18 10:04:10;;;;;;;7.45;5.47;;;;;;;;;;5030886;28;20047;-66
2023/03/18 10:06:36;;;;;;;8.37;6.20;;;;;;;;;;5025443;28;20053;-65
2023/03/18 10:09:14;;;;;;;6.57;5.32;;;;;;;;;;5045032;28;20299;-64
2023/03/18 10:11:46;;;;;;;7.95;5.78;;;;;;;;;;5050043;28;20056;-65
2023/03/18 10:14:15;;;;;;;7.10;5.50;;;;;;;;;;5012010;28;20136;-63
2023/03/18 10:17:00;;;;;;;7.18;5.43;;;;;;;;;;5054566;28;20040;-66
2023/03/18 10:19:27;;;;;;;6.40;5.18;;;;;;;;;;5012514;28;20513;-64
2023/03/18 10:22:11;;;;;;;7.35;5.22;;;;;;;;;;5036605;28;20037;-65
2023/03/18 10:24:39;;;;;;;7.72;5.65;;;;;;;;;;5032108;28;20144;-67
2023/03/18 10:27:19;;;;;;;7.07;5.63;;;;;;;;;;5022647;28;20048;-67
2023/03/18 10:29:50;;;;;;;7.55;5.63;;;;;;;;;;4997337;28;20036;-66
2023/03/18 10:32:25;;;;;;;7.82;5.40;;;;;;;;;;5014330;28;20041;-68
2023/03/18 10:34:56;;;;;;;9.50;5.80;;;;;;;;;;5033187;28;20055;-65
2023/03/18 10:37:26;;;;;;;9.50;5.63;;;;;;;;;;5030105;28;20040;-64
2023/03/18 10:39:52;;;;;;;8.15;5.78;;;;;;;;;;4994752;28;20462;-63
2023/03/18 10:42:21;;;;;;;7.40;5.10;;;;;;;;;;5034567;28;20119;-67
2023/03/18 10:44:46;;;;;;;7.00;4.90;;;;;;;;;;5041634;28;21095;-67
2023/03/18 10:47:18;;;;;;;7.80;5.25;;;;;;;;;;5031716;28;20283;-66
2023/03/18 10:50:16;;;;;;;9.05;6.07;;;;;;;;;;5050780;28;20127;-65
2023/03/18 10:52:46;;;;;;;7.93;5.70;;;;;;;;;;5017399;28;20063;-65
2023/03/18 10:55:15;;;;;;;9.18;5.53;;;;;;;;;;5035248;28;20040;-64
2023/03/18 10:57:41;;;;;;;10.40;5.55;;;;;;;;;;5052025;28;20518;-68
2023/03/18 11:00:12;;;;;;;8.82;5.68;;;;;;;;;;5030206;28;20665;-67
2023/03/18 11:02:37;;;;;;;10.10;5.45;;;;;;;;;;5037102;28;20040;-67
2023/03/18 11:05:23;;;;;;;9.60;5.70;;;;;;;;;;5018398;28;20067;-65
2023/03/18 11:07:58;;;;;;;8.10;5.75;;;;;;;;;;5010481;28;21162;-65
2023/03/18 11:10:24;;;;;;;7.88;5.13;;;;;;;;;;5018982;28;20563;-67
2023/03/18 11:12:54;;;;;;;8.57;5.35;;;;;;;;;;5038343;28;20060;-64
2023/03/18 11:15:19;;;;;;;8.27;4.93;;;;;;;;;;5032319;28;20044;-65
2023/03/18 11:17:45;;;;;;;9.05;5.43;;;;;;;;;;5018891;28;20034;-64
2023/03/18 11:20:18;;;;;;;9.63;5.63;;;;;;;;;;5033330;28;20529;-64
2023/03/18 11:22:43;;;;;;;6.80;5.20;;;;;;;;;;5050515;28;20025;-65
2023/03/18 11:25:19;;;;;;;7.50;5.40;;;;;;;;;;5016212;28;20044;-66
2023/03/18 11:27:44;;;;;;;10.65;5.25;;;;;;;;;;5053946;28;20035;-64
2023/03/18 11:30:14;;;;;;;6.68;4.97;;;;;;;;;;5052438;28;20020;-65
2023/03/18 11:32:41;;;;;;;7.10;4.75;;;;;;;;;;5035760;28;20060;-63
2023/03/18 11:35:07;;;;;;;6.88;4.80;;;;;;;;;;5029609;28;20148;-65
2023/03/18 11:37:33;;;;;;;7.03;4.93;;;;;;;;;;5047982;28;20037;-64
2023/03/18 11:40:26;;;;;;;9.43;5.40;;;;;;;;;;5050620;28;20040;-62
2023/03/18 11:43:01;;;;;;;7.15;4.88;;;;;;;;;;5034733;28;20845;-62
2023/03/18 11:45:44;;;;;;;7.25;5.10;;;;;;;;;;5008760;28;20777;-64
2023/03/18 11:48:13;;;;;;;7.13;4.60;;;;;;;;;;5016925;28;20102;-67
2023/03/18 11:50:41;;;;;;;7.90;5.22;;;;;;;;;;4998691;28;20025;-65
2023/03/18 11:53:18;;;;;;;10.77;5.45;;;;;;;;;;5016581;28;20071;-67
2023/03/18 11:55:43;;;;;;;8.13;5.22;;;;;;;;;;4999047;28;20029;-65
2023/03/18 11:58:30;;;;;;;6.38;4.60;;;;;;;;;;5033635;28;20512;-64
2023/03/18 12:01:07;;;;;;;7.95;5.30;;;;;;;;;;5030420;28;20044;-65
2023/03/18 12:03:52;;;;;;;7.03;4.93;;;;;;;;;;5031652;28;20555;-65
2023/03/18 12:06:21;;;;;;;6.97;4.47;;;;;;;;;;5027260;28;20025;-65
2023/03/18 12:08:53;;;;;;;8.55;4.90;;;;;;;;;;5026169;28;20043;-67
2023/03/18 12:11:18;;;;;;;7.68;4.10;;;;;;;;;;5052468;28;20017;-66
2023/03/18 12:13:44;;;;;;;6.38;4.25;;;;;;;;;;5044726;28;20130;-65
2023/03/18 12:16:21;;;;;;;5.10;3.83;;;;;;;;;;5032364;28;23679;-67
2023/03/18 12:19:08;;;;;;;7.00;4.38;;;;;;;;;;5048681;28;20292;-71
2023/03/18 12:21:37;;;;;;;7.47;3.80;;;;;;;;;;5048790;28;20867;-71
2023/03/18 12:24:11;;;;;;;6.55;3.97;;;;;;;;;;5044873;28;20119;-71
2023/03/18 12:26:40;;;;;;;6.90;3.80;;;;;;;;;;5046790;28;20044;-66
2023/03/18 12:29:06;;;;;;;7.47;3.70;;;;;;;;;;5037976;28;20032;-66
2023/03/18 12:31:31;;;;;;;6.22;3.58;;;;;;;;;;5051198;28;20067;-67
2023/03/18 12:33:57;;;;;;;5.97;3.67;;;;;;;;;;5019653;28;20030;-70
2023/03/18 12:36:35;;;;;;;5.35;3.70;;;;;;;;;;5011230;28;20037;-70
2023/03/18 12:39:04;;;;;;;4.25;3.00;;;;;;;;;;5031376;28;20049;-64
2023/03/18 12:41:39;;;;;;;3.72;2.75;;;;;;;;;;5040118;28;20045;-70
2023/03/18 12:44:04;;;;;;;3.83;2.50;;;;;;;;;;5047852;28;20045;-65
2023/03/18 12:46:31;;;;;;;4.13;2.60;;;;;;;;;;5047375;28;20052;-71
2023/03/18 12:48:59;;;;;;;7.65;2.40;;;;;;;;;;5025044;28;20048;-65
2023/03/18 12:51:25;;;;;;;7.13;2.80;;;;;;;;;;5025812;28;20045;-66
2023/03/18 12:53:52;;;;;;;4.03;2.38;;;;;;;;;;5031552;28;20032;-67
2023/03/18 12:56:24;;;;;;;3.08;2.28;;;;;;;;;;5024970;28;20041;-68
2023/03/18 12:58:50;;;;;;;3.40;2.35;;;;;;;;;;5031988;28;20041;-66
2023/03/18 13:01:46;;;;;;;3.53;2.23;;;;;;;;;;5052570;28;20385;-65
2023/03/18 13:04:13;;;;;;;4.45;2.53;;;;;;;;;;5005046;28;20284;-62
2023/03/18 13:06:39;;;;;;;4.13;2.47;;;;;;;;;;5020879;28;20052;-61
2023/03/18 13:09:14;;;;;;;3.67;2.53;;;;;;;;;;5037991;28;20032;-59
2023/03/18 13:11:58;;;;;;;3.53;2.83;;;;;;;;;;5041931;28;20095;-61
2023/03/18 13:14:43;;;;;;;4.18;2.70;;;;;;;;;;5020551;28;20404;-61
2023/03/18 13:17:22;;;;;;;5.45;2.47;;;;;;;;;;5055480;28;20060;-60
2023/03/18 13:19:47;;;;;;;3.47;2.40;;;;;;;;;;5038192;28;20119;-59
2023/03/18 13:22:31;;;;;;;4.03;2.53;;;;;;;;;;5030312;28;20556;-61
2023/03/18 13:25:16;;;;;;;7.22;2.75;;;;;;;;;;5045224;28;20878;-61
2023/03/18 13:28:06;;;;;;;4.57;2.40;;;;;;;;;;5051098;28;20076;-60
2023/03/18 13:30:44;;;;;;;3.72;2.10;;;;;;;;;;4999617;28;20669;-60
2023/03/18 13:33:20;;;;;;;3.50;2.67;;;;;;;;;;5056481;28;20722;-61
2023/03/18 13:35:52;;;;;;;6.63;2.20;;;;;;;;;;5022110;28;20102;-62
2023/03/18 13:38:26;;;;;;;4.88;1.80;;;;;;;;;;5011111;28;20024;-66
2023/03/18 13:41:00;;;;;;;3.42;2.03;;;;;;;;;;5007791;28;20024;-60
2023/03/18 13:43:26;;;;;;;4.22;2.10;;;;;;;;;;5035928;28;20453;-60
2023/03/18 13:45:52;;;;;;;3.58;2.00;;;;;;;;;;5023778;28;20144;-66
2023/03/18 13:48:27;;;;;;;4.32;2.00;;;;;;;;;;5003253;28;20352;-65
2023/03/18 13:50:53;;;;;;;5.22;2.60;;;;;;;;;;5024544;28;20036;-66
2023/03/18 13:53:26;;;;;;;4.68;2.33;;;;;;;;;;5044578;28;20063;-62
2023/03/18 13:55:53;;;;;;;3.25;2.13;;;;;;;;;;5037591;28;20037;-63
2023/03/18 13:58:21;;;;;;;4.72;2.05;;;;;;;;;;5019090;28;20681;-61
2023/03/18 14:01:10;;;;;;;2.92;1.90;;;;;;;;;;5038253;28;20029;-64
2023/03/18 14:03:42;;;;;;;3.67;2.03;;;;;;;;;;5018115;28;20139;-64
2023/03/18 14:06:07;;;;;;;3.28;2.10;;;;;;;;;;5036560;28;20040;-62
2023/03/18 14:08:38;;;;;;;3.80;2.17;;;;;;;;;;5039252;28;20047;-64
2023/03/18 14:11:15;;;;;;;3.63;2.40;;;;;;;;;;5043545;28;20091;-65
2023/03/18 14:13:41;;;;;;;2.70;1.95;;;;;;;;;;5028498;28;20428;-63
2023/03/18 14:16:10;;;;;;;2.78;2.15;;;;;;;;;;5031554;28;20136;-63
2023/03/18 14:18:36;;;;;;;3.22;2.20;;;;;;;;;;5031003;28;20032;-68
2023/03/18 14:21:03;;;;;;;3.17;1.92;;;;;;;;;;5030220;28;20049;-58
2023/03/18 14:23:40;;;;;;;3.35;2.10;;;;;;;;;;5020334;28;20464;-63
2023/03/18 14:26:07;;;;;;;4.65;2.25;;;;;;;;;;5034342;28;20158;-63
2023/03/18 14:28:43;;;;;;;2.95;2.05;;;;;;;;;;5026665;28;20596;-65
2023/03/18 14:31:14;;;;;;;2.97;1.83;;;;;;;;;;5014189;28;20033;-63
2023/03/18 14:33:47;;;;;;;2.85;2.20;;;;;;;;;;5000131;28;20064;-64
2023/03/18 14:36:13;;;;;;;4.50;1.98;;;;;;;;;;5006633;28;20037;-63
2023/03/18 14:38:45;;;;;;;6.57;2.10;;;;;;;;;;5002647;28;20103;-63
2023/03/18 14:41:39;;;;;;;3.17;2.05;;;;;;;;;;5003794;28;20040;-62
2023/03/18 14:44:19;;;;;;;6.15;1.88;;;;;;;;;;5024328;28;20155;-63
2023/03/18 14:46:44;;;;;;;4.20;2.55;;;;;;;;;;4996174;28;20045;-66
2023/03/18 14:49:40;;;;;;;6.47;2.10;;;;;;;;;;5001278;28;20044;-64
2023/03/18 14:52:10;;;;;;;3.47;1.92;;;;;;;;;;5011253;28;20056;-64